Time,TemperatureF,DewpointF,PressureIn,WindDirection,WindDirectionDegrees,WindSpeedMPH,WindSpeedGustMPH,Humidity,HourlyPrecipIn,Conditions,Clouds,dailyrainin,SoftwareType,DateUTC
2013-06-27 00:00:00,-2.1,-5.5,29.81,NNE,26,6.0,8.0,85,0.00,CLR,,0.00,WeatherDisplay:10.37,2013-06-26 12:00:00,
2013-06-27 00:15:00,1.0,-2.2,29.81,NNE,25,7.0,7.0,86,0.00,CLR,,0.00,WeatherDisplay:10.37,2013-06-26 12:15:00,
2013-06-27 00:30:00,1.1,-2.1,29.81,NNE,22,7.0,7.0,86,0.00,CLR,,0.00,WeatherDisplay:10.37,2013-06-26 12:30:00,
2013-06-27 00:45:00,1.1,-2.1,29.81,NNE,21,6.0,7.0,86,0.00,CLR,,0.00,WeatherDisplay:10.37,2013-06-26 12:45:00,
2013-06-27 01:00:00,1.6,-1.3,29.81,NNE,20,6.0,6.0,87,0.00,CLR,,0.00,WeatherDisplay:10.37,2013-06-26 13:00:00,
2013-06-27 01:15:00,1.9,-1.1,29.81,NNE,19,5.0,6.0,87,0.00,CLR,,0.00,WeatherDisplay:10.37,2013-06-26 13:15:00,
2013-06-27 01:30:00,1.9,-1.1,29.81,NNE,13,5.0,5.0,87,0.00,CLR,,0.00,WeatherDisplay:10.37,2013-06-26 13:30:00,
2013-06-27 01:45:00,3.1,0.4,29.80,NNE,22,5.0,5.0,88,0.00,CLR,,0.00,WeatherDisplay:10.37,2013-06-26 13:45:00,
2013-06-27 02:00:00,4.2,1.6,29.80,NNE,19,5.0,5.0,89,0.00,CLR,,0.00,WeatherDisplay:10.37,2013-06-26 14:00:00,
2013-06-27 02:15:00,4.7,2.0,29.80,NNE,15,2.0,5.0,88,0.00,CLR,,0.00,WeatherDisplay:10.37,2013-06-26 14:15:00,
2013-06-27 02:30:00,4.7,1.9,29.79,North,6,0.0,2.0,88,0.00,CLR,,0.00,WeatherDisplay:10.37,2013-06-26 14:30:00,
2013-06-27 02:45:00,4.9,2.1,29.79,North,0,0.0,0.0,88,0.00,CLR,,0.00,WeatherDisplay:10.37,2013-06-26 14:45:00,
2013-06-27 03:00:00,5.3,2.5,29.79,NW,314,1.0,1.0,88,0.00,CLR,,0.00,WeatherDisplay:10.37,2013-06-26 15:00:00,
2013-06-27 03:15:00,5.0,2.0,29.79,SSW,193,1.0,1.0,87,0.00,CLR,,0.00,WeatherDisplay:10.37,2013-06-26 15:15:00,
2013-06-27 03:30:00,1.9,-1.5,29.79,North,0,0.0,1.0,85,0.00,CLR,,0.00,WeatherDisplay:10.37,2013-06-26 15:30:00,
2013-06-27 03:45:00,0.4,-3.1,29.78,North,0,0.0,0.0,85,0.00,CLR,,0.00,WeatherDisplay:10.37,2013-06-26 15:45:00,
2013-06-27 04:00:00,-0.5,-4.2,29.78,North,0,0.0,0.0,84,0.00,CLR,,0.00,WeatherDisplay:10.37,2013-06-26 16:00:00,
2013-06-27 04:15:00,0.1,-3.1,29.78,NNE,23,3.0,3.0,86,0.00,CLR,,0.00,WeatherDisplay:10.37,2013-06-26 16:15:00,
2013-06-27 04:30:00,0.2,-3.0,29.78,NNE,23,5.0,5.0,86,0.00,CLR,,0.00,WeatherDisplay:10.37,2013-06-26 16:30:00,
2013-06-27 04:45:00,-1.2,-4.8,29.78,NE,42,3.0,5.0,84,0.00,CLR,,0.00,WeatherDisplay:10.37,2013-06-26 16:45:00,
2013-06-27 05:00:00,-2.7,-6.6,29.78,NE,35,3.0,3.0,83,0.00,CLR,,0.00,WeatherDisplay:10.37,2013-06-26 17:00:00,
2013-06-27 05:15:00,-4.7,-8.8,29.77,NNE,27,6.0,6.0,82,0.00,CLR,,0.00,WeatherDisplay:10.37,2013-06-26 17:15:00,
2013-06-27 05:30:00,-4.7,-8.6,29.77,NE,35,7.0,7.0,83,0.00,CLR,,0.00,WeatherDisplay:10.37,2013-06-26 17:30:00,
2013-06-27 05:45:00,-4.9,-8.7,29.78,NE,36,6.0,7.0,83,0.00,CLR,,0.00,WeatherDisplay:10.37,2013-06-26 17:45:00,
2013-06-27 06:00:00,-4.7,-8.5,29.78,NE,35,7.0,7.0,83,0.00,CLR,,0.00,WeatherDisplay:10.37,2013-06-26 18:00:00,
2013-06-27 06:15:00,-4.6,-8.4,29.78,NE,40,7.0,7.0,83,0.00,CLR,,0.00,WeatherDisplay:10.37,2013-06-26 18:15:00,
2013-06-27 06:30:00,-4.7,-8.5,29.78,NE,43,7.0,7.0,83,0.00,CLR,,0.00,WeatherDisplay:10.37,2013-06-26 18:30:00,
2013-06-27 06:45:00,-4.9,-8.7,29.79,NE,53,8.0,8.0,83,0.00,CLR,,0.00,WeatherDisplay:10.37,2013-06-26 18:45:00,
2013-06-27 07:00:00,-5.4,-9.5,29.78,ENE,59,7.0,8.0,82,0.00,CLR,,0.00,WeatherDisplay:10.37,2013-06-26 19:00:00,
2013-06-27 07:15:00,-6.4,-10.5,29.78,NE,44,9.0,9.0,82,0.00,CLR,,0.00,WeatherDisplay:10.37,2013-06-26 19:15:00,
2013-06-27 07:30:00,-6.5,-10.5,29.78,NE,47,9.0,9.0,82,0.00,CLR,,0.00,WeatherDisplay:10.37,2013-06-26 19:30:00,
2013-06-27 07:45:00,-6.5,-10.5,29.78,NE,45,8.0,9.0,82,0.00,CLR,,0.00,WeatherDisplay:10.37,2013-06-26 19:45:00,
2013-06-27 08:00:00,-6.3,-10.4,29.78,NE,41,9.0,9.0,82,0.00,CLR,,0.00,WeatherDisplay:10.37,2013-06-26 20:00:00,
2013-06-27 08:15:00,-5.5,-9.3,29.77,NNE,33,12.0,12.0,83,0.00,CLR,,0.00,WeatherDisplay:10.37,2013-06-26 20:15:00,
2013-06-27 08:30:00,-5.0,-8.8,29.77,NE,40,10.0,12.0,83,0.00,CLR,,0.00,WeatherDisplay:10.37,2013-06-26 20:30:00,
2013-06-27 08:45:00,-5.4,-9.5,29.77,NE,46,12.0,12.0,82,0.00,CLR,,0.00,WeatherDisplay:10.37,2013-06-26 20:45:00,
2013-06-27 09:00:00,-6.2,-10.5,29.78,NE,44,12.0,12.0,81,0.00,CLR,,0.00,WeatherDisplay:10.37,2013-06-26 21:00:00,
2013-06-27 09:15:00,-7.8,-12.0,29.78,NE,39,15.0,15.0,81,0.00,CLR,,0.00,WeatherDisplay:10.37,2013-06-26 21:15:00,
2013-06-27 09:30:00,-8.2,-12.5,29.78,NE,36,15.0,15.0,81,0.00,CLR,,0.00,WeatherDisplay:10.37,2013-06-26 21:30:00,
2013-06-27 09:45:00,-9.0,-13.5,29.79,NE,40,13.0,15.0,80,0.00,CLR,,0.00,WeatherDisplay:10.37,2013-06-26 21:45:00,
2013-06-27 10:00:00,-9.3,-13.8,29.78,NE,46,13.0,13.0,80,0.00,CLR,,0.00,WeatherDisplay:10.37,2013-06-26 22:00:00,
2013-06-27 10:15:00,-9.5,-14.2,29.78,NE,41,15.0,15.0,79,0.00,CLR,,0.00,WeatherDisplay:10.37,2013-06-26 22:15:00,
2013-06-27 10:30:00,-9.5,-13.9,29.78,NE,39,15.0,15.0,80,0.00,CLR,,0.00,WeatherDisplay:10.37,2013-06-26 22:30:00,
2013-06-27 10:45:00,-9.7,-14.2,29.78,NE,37,16.0,16.0,80,0.00,CLR,,0.00,WeatherDisplay:10.37,2013-06-26 22:45:00,
2013-06-27 11:00:00,-9.8,-14.5,29.78,NE,34,16.0,16.0,79,0.00,CLR,,0.00,WeatherDisplay:10.37,2013-06-26 23:00:00,
2013-06-27 11:15:00,-9.7,-14.7,29.77,NNE,33,18.0,18.0,78,0.00,CLR,,0.00,WeatherDisplay:10.37,2013-06-26 23:15:00,
2013-06-27 11:30:00,-10.0,-15.0,29.77,NNE,33,18.0,18.0,78,0.00,CLR,,0.00,WeatherDisplay:10.37,2013-06-26 23:30:00,
2013-06-27 11:45:00,-10.5,-16.3,29.77,NE,35,17.0,18.0,75,0.00,CLR,,0.00,WeatherDisplay:10.37,2013-06-26 23:45:00,
2013-06-27 12:00:00,-11.1,-17.3,29.76,NNE,33,18.0,18.0,73,0.00,CLR,,0.00,WeatherDisplay:10.37,2013-06-27 00:00:00,
2013-06-27 12:15:00,-11.7,-19.3,29.76,NNE,33,17.0,18.0,68,0.00,CLR,,0.00,WeatherDisplay:10.37,2013-06-27 00:15:00,
2013-06-27 12:30:00,-11.8,-19.4,29.76,NE,35,17.0,17.0,68,0.00,CLR,,0.00,WeatherDisplay:10.37,2013-06-27 00:30:00,
2013-06-27 12:45:00,-12.0,-20.4,29.75,NE,34,18.0,18.0,65,0.00,CLR,,0.00,WeatherDisplay:10.37,2013-06-27 00:45:00,
2013-06-27 13:00:00,-12.2,-20.7,29.75,NE,35,20.0,20.0,65,0.00,CLR,,0.00,WeatherDisplay:10.37,2013-06-27 01:00:00,
2013-06-27 13:15:00,-11.9,-20.1,29.75,NE,35,21.0,21.0,66,0.00,CLR,,0.00,WeatherDisplay:10.37,2013-06-27 01:15:00,
2013-06-27 13:30:00,-11.9,-19.8,29.75,NE,38,21.0,21.0,67,0.00,CLR,,0.00,WeatherDisplay:10.37,2013-06-27 01:30:00,
2013-06-27 13:45:00,-12.0,-20.2,29.74,NE,35,22.0,22.0,66,0.00,CLR,,0.00,WeatherDisplay:10.37,2013-06-27 01:45:00,
2013-06-27 14:00:00,-12.0,-20.2,29.74,NE,38,22.0,22.0,66,0.00,CLR,,0.00,WeatherDisplay:10.37,2013-06-27 02:00:00,
2013-06-27 14:15:00,-12.3,-20.5,29.74,NE,42,22.0,22.0,66,0.00,CLR,,0.00,WeatherDisplay:10.37,2013-06-27 02:15:00,
2013-06-27 14:30:00,-11.6,-20.3,29.74,NE,41,23.0,23.0,64,0.00,,,0.00,WeatherDisplay:10.37,2013-06-27 02:30:00,
2013-06-27 14:45:00,-11.2,-20.9,29.75,NE,43,25.0,25.0,61,0.00,,,0.00,WeatherDisplay:10.37,2013-06-27 02:45:00,
2013-06-27 15:00:00,-12.1,-21.8,29.75,NE,47,25.0,25.0,61,0.00,,,0.00,WeatherDisplay:10.37,2013-06-27 03:00:00,
2013-06-27 15:15:00,-12.9,-22.9,29.75,NE,50,23.0,25.0,60,0.00,,,0.00,WeatherDisplay:10.37,2013-06-27 03:15:00,
2013-06-27 15:30:00,-13.2,-23.4,29.75,NE,50,24.0,24.0,59,0.00,,,0.00,WeatherDisplay:10.37,2013-06-27 03:30:00,
2013-06-27 15:45:00,-13.6,-23.9,29.76,NE,43,23.0,24.0,59,0.00,,,0.00,WeatherDisplay:10.37,2013-06-27 03:45:00,
2013-06-27 16:00:00,-13.4,-23.7,29.75,NE,43,22.0,23.0,59,0.00,CLR,,0.00,WeatherDisplay:10.37,2013-06-27 04:00:00,
2013-06-27 16:15:00,-13.5,-23.7,29.75,NE,43,24.0,24.0,59,0.00,,,0.00,WeatherDisplay:10.37,2013-06-27 04:15:00,
2013-06-27 16:30:00,-13.6,-23.5,29.75,NE,42,23.0,24.0,60,0.00,,,0.00,WeatherDisplay:10.37,2013-06-27 04:30:00,
2013-06-27 16:45:00,-13.9,-23.5,29.75,NE,43,24.0,24.0,61,0.00,,,0.00,WeatherDisplay:10.37,2013-06-27 04:45:00,
2013-06-27 17:00:00,-13.8,-23.7,29.75,NE,43,24.0,24.0,60,0.00,,,0.00,WeatherDisplay:10.37,2013-06-27 05:00:00,
2013-06-27 17:15:00,-14.2,-23.7,29.75,NE,46,25.0,25.0,61,0.00,,,0.00,WeatherDisplay:10.37,2013-06-27 05:15:00,
2013-06-27 17:30:00,-15.1,-23.7,29.75,NE,49,24.0,25.0,64,0.00,,,0.00,WeatherDisplay:10.37,2013-06-27 05:30:00,
2013-06-27 17:45:00,-15.3,-23.9,29.75,NE,48,24.0,24.0,64,0.00,,,0.00,WeatherDisplay:10.37,2013-06-27 05:45:00,
2013-06-27 18:00:00,-15.5,-23.8,29.75,NE,45,24.0,24.0,65,0.00,,,0.00,WeatherDisplay:10.37,2013-06-27 06:00:00,
2013-06-27 18:15:00,-15.1,-24.7,29.75,NE,48,24.0,24.0,61,0.00,,,0.00,WeatherDisplay:10.37,2013-06-27 06:15:00,
2013-06-27 18:30:00,-15.2,-24.8,29.75,NE,45,25.0,25.0,61,0.00,,,0.00,WeatherDisplay:10.37,2013-06-27 06:30:00,
2013-06-27 18:45:00,-15.7,-24.9,29.75,NE,41,29.0,29.0,62,0.00,,,0.00,WeatherDisplay:10.37,2013-06-27 06:45:00,
2013-06-27 19:00:00,-16.1,-24.7,29.75,NE,40,30.0,30.0,64,0.00,,,0.00,WeatherDisplay:10.37,2013-06-27 07:00:00,
2013-06-27 19:15:00,-16.8,-25.1,29.75,NE,42,29.0,30.0,65,0.00,,,0.00,WeatherDisplay:10.37,2013-06-27 07:15:00,
2013-06-27 19:30:00,-17.3,-25.3,29.74,NE,40,28.0,29.0,66,0.00,,,0.00,WeatherDisplay:10.37,2013-06-27 07:30:00,
2013-06-27 19:45:00,-17.3,-25.2,29.74,NE,38,29.0,29.0,66,0.00,,,0.00,WeatherDisplay:10.37,2013-06-27 07:45:00,
2013-06-27 20:00:00,-17.4,-25.3,29.74,NE,38,29.0,29.0,66,0.00,,,0.00,WeatherDisplay:10.37,2013-06-27 08:00:00,
2013-06-27 20:15:00,-17.0,-25.3,29.74,NE,37,31.0,31.0,65,0.00,,,0.00,WeatherDisplay:10.37,2013-06-27 08:15:00,
2013-06-27 20:30:00,-17.3,-25.2,29.74,NNE,32,32.0,32.0,66,0.00,,,0.00,WeatherDisplay:10.37,2013-06-27 08:30:00,
2013-06-27 20:45:00,-17.0,-25.2,29.74,NE,35,32.0,32.0,65,0.00,,,0.00,WeatherDisplay:10.37,2013-06-27 08:45:00,
2013-06-27 21:00:00,-17.4,-25.6,29.74,NE,36,33.0,33.0,65,0.00,,,0.00,WeatherDisplay:10.37,2013-06-27 09:00:00,
2013-06-27 21:15:00,-18.1,-26.0,29.75,NE,36,33.0,33.0,66,0.00,,,0.00,WeatherDisplay:10.37,2013-06-27 09:15:00,
2013-06-27 21:30:00,-18.3,-26.2,29.75,NE,41,32.0,33.0,66,0.00,,,0.00,WeatherDisplay:10.37,2013-06-27 09:30:00,
2013-06-27 21:45:00,-19.2,-27.7,29.75,NE,42,31.0,32.0,64,0.00,,,0.00,WeatherDisplay:10.37,2013-06-27 09:45:00,
2013-06-27 22:00:00,-19.4,-28.2,29.76,NE,40,31.0,31.0,63,0.00,,,0.00,WeatherDisplay:10.37,2013-06-27 10:00:00,
2013-06-27 22:15:00,-20.2,-28.9,29.76,NE,43,29.0,31.0,63,0.00,,,0.00,WeatherDisplay:10.37,2013-06-27 10:15:00,
2013-06-27 22:30:00,-20.4,-29.4,29.77,NE,43,30.0,30.0,62,0.00,,,0.00,WeatherDisplay:10.37,2013-06-27 10:30:00,
2013-06-27 22:45:00,-20.7,-30.5,29.77,NE,41,29.0,30.0,59,0.00,,,0.00,WeatherDisplay:10.37,2013-06-27 10:45:00,
2013-06-27 23:00:00,-20.8,-31.0,29.76,NE,41,26.0,29.0,58,0.00,,,0.00,WeatherDisplay:10.37,2013-06-27 11:00:00,
2013-06-27 23:15:00,-20.8,-30.7,29.77,NE,40,25.0,26.0,59,0.00,,,0.00,WeatherDisplay:10.37,2013-06-27 11:15:00,
2013-06-27 23:30:00,-20.9,-30.7,29.77,NE,45,23.0,25.0,59,0.00,CLR,,0.00,WeatherDisplay:10.37,2013-06-27 11:30:00,
2013-06-27 23:45:00,-20.8,-30.7,29.76,NE,41,24.0,24.0,59,0.00,,,0.00,WeatherDisplay:10.37,2013-06-27 11:45:00,